sensor_id;sensor_type;location;lat;lon;timestamp;P1;durP1;ratioP1;P2;durP2;ratioP2
38312;SDS011;24114;52.260;6.714;2023-07-31T00:00:57;1.05;;;0.40;;
38312;SDS011;24114;52.260;6.714;2023-07-31T00:03:25;1.92;;;0.50;;
38312;SDS011;24114;52.260;6.714;2023-07-31T00:05:53;1.35;;;0.68;;
38312;SDS011;24114;52.260;6.714;2023-07-31T00:08:21;0.95;;;0.38;;
38312;SDS011;24114;52.260;6.714;2023-07-31T00:10:51;1.00;;;0.50;;
38312;SDS011;24114;52.260;6.714;2023-07-31T00:13:19;1.38;;;0.60;;
38312;SDS011;24114;52.260;6.714;2023-07-31T00:15:46;1.40;;;0.40;;
38312;SDS011;24114;52.260;6.714;2023-07-31T00:18:16;0.90;;;0.50;;
38312;SDS011;24114;52.260;6.714;2023-07-31T00:20:44;4.60;;;0.70;;
38312;SDS011;24114;52.260;6.714;2023-07-31T00:23:12;1.70;;;0.77;;
38312;SDS011;24114;52.260;6.714;2023-07-31T00:25:39;1.37;;;0.30;;
38312;SDS011;24114;52.260;6.714;2023-07-31T00:28:07;1.73;;;0.40;;
38312;SDS011;24114;52.260;6.714;2023-07-31T00:30:35;1.30;;;0.50;;
38312;SDS011;24114;52.260;6.714;2023-07-31T00:33:03;1.48;;;0.50;;
38312;SDS011;24114;52.260;6.714;2023-07-31T00:35:32;1.20;;;0.45;;
38312;SDS011;24114;52.260;6.714;2023-07-31T00:38:00;2.10;;;0.30;;
38312;SDS011;24114;52.260;6.714;2023-07-31T00:40:28;1.00;;;0.47;;
38312;SDS011;24114;52.260;6.714;2023-07-31T00:42:56;0.95;;;0.32;;
38312;SDS011;24114;52.260;6.714;2023-07-31T00:45:26;1.70;;;0.40;;
38312;SDS011;24114;52.260;6.714;2023-07-31T00:47:55;1.60;;;0.40;;
38312;SDS011;24114;52.260;6.714;2023-07-31T00:50:23;2.67;;;0.30;;
38312;SDS011;24114;52.260;6.714;2023-07-31T00:52:53;1.42;;;0.30;;
38312;SDS011;24114;52.260;6.714;2023-07-31T00:55:21;1.23;;;0.40;;
38312;SDS011;24114;52.260;6.714;2023-07-31T00:57:49;0.80;;;0.20;;
38312;SDS011;24114;52.260;6.714;2023-07-31T01:00:18;1.40;;;0.30;;
38312;SDS011;24114;52.260;6.714;2023-07-31T01:02:46;0.70;;;0.20;;
38312;SDS011;24114;52.260;6.714;2023-07-31T01:05:15;1.15;;;0.30;;
38312;SDS011;24114;52.260;6.714;2023-07-31T01:07:45;0.50;;;0.20;;
38312;SDS011;24114;52.260;6.714;2023-07-31T01:10:20;0.60;;;0.20;;
38312;SDS011;24114;52.260;6.714;2023-07-31T01:12:49;1.13;;;0.32;;
38312;SDS011;24114;52.260;6.714;2023-07-31T01:15:18;0.50;;;0.10;;
38312;SDS011;24114;52.260;6.714;2023-07-31T01:17:46;1.05;;;0.20;;
38312;SDS011;24114;52.260;6.714;2023-07-31T01:20:15;0.70;;;0.30;;
38312;SDS011;24114;52.260;6.714;2023-07-31T01:22:53;0.95;;;0.40;;
38312;SDS011;24114;52.260;6.714;2023-07-31T01:25:35;2.38;;;0.50;;
38312;SDS011;24114;52.260;6.714;2023-07-31T01:28:29;1.10;;;0.20;;
38312;SDS011;24114;52.260;6.714;2023-07-31T01:31:00;0.50;;;0.13;;
38312;SDS011;24114;52.260;6.714;2023-07-31T01:33:30;0.65;;;0.28;;
38312;SDS011;24114;52.260;6.714;2023-07-31T01:35:58;0.60;;;0.20;;
38312;SDS011;24114;52.260;6.714;2023-07-31T01:38:26;1.05;;;0.10;;
38312;SDS011;24114;52.260;6.714;2023-07-31T01:40:55;1.38;;;0.10;;
38312;SDS011;24114;52.260;6.714;2023-07-31T01:43:23;0.85;;;0.10;;
38312;SDS011;24114;52.260;6.714;2023-07-31T01:45:51;0.55;;;0.10;;
38312;SDS011;24114;52.260;6.714;2023-07-31T01:48:18;0.32;;;0.10;;
38312;SDS011;24114;52.260;6.714;2023-07-31T01:50:46;0.82;;;0.10;;
38312;SDS011;24114;52.260;6.714;2023-07-31T01:53:14;0.10;;;0.00;;
38312;SDS011;24114;52.260;6.714;2023-07-31T01:55:42;1.02;;;0.08;;
38312;SDS011;24114;52.260;6.714;2023-07-31T01:58:11;2.72;;;0.40;;
38312;SDS011;24114;52.260;6.714;2023-07-31T02:00:39;2.33;;;0.30;;
38312;SDS011;24114;52.260;6.714;2023-07-31T02:03:07;3.83;;;0.20;;
38312;SDS011;24114;52.260;6.714;2023-07-31T02:05:35;1.60;;;0.20;;
38312;SDS011;24114;52.260;6.714;2023-07-31T02:08:03;0.50;;;0.00;;
38312;SDS011;24114;52.260;6.714;2023-07-31T02:10:32;1.30;;;0.15;;
38312;SDS011;24114;52.260;6.714;2023-07-31T02:12:59;2.40;;;0.10;;
38312;SDS011;24114;52.260;6.714;2023-07-31T02:15:31;1.15;;;0.03;;
38312;SDS011;24114;52.260;6.714;2023-07-31T02:17:59;1.05;;;0.20;;
38312;SDS011;24114;52.260;6.714;2023-07-31T02:20:27;0.47;;;0.10;;
38312;SDS011;24114;52.260;6.714;2023-07-31T02:22:54;0.98;;;0.10;;
38312;SDS011;24114;52.260;6.714;2023-07-31T02:25:22;1.40;;;0.20;;
38312;SDS011;24114;52.260;6.714;2023-07-31T02:27:50;2.50;;;0.63;;
38312;SDS011;24114;52.260;6.714;2023-07-31T02:30:18;1.25;;;0.55;;
38312;SDS011;24114;52.260;6.714;2023-07-31T02:32:47;4.78;;;1.75;;
38312;SDS011;24114;52.260;6.714;2023-07-31T02:35:15;3.75;;;2.00;;
38312;SDS011;24114;52.260;6.714;2023-07-31T02:37:44;3.63;;;2.20;;
38312;SDS011;24114;52.260;6.714;2023-07-31T02:40:12;5.10;;;2.80;;
38312;SDS011;24114;52.260;6.714;2023-07-31T02:42:40;7.03;;;3.35;;
38312;SDS011;24114;52.260;6.714;2023-07-31T02:45:08;7.70;;;4.20;;
38312;SDS011;24114;52.260;6.714;2023-07-31T02:47:36;7.07;;;3.80;;
38312;SDS011;24114;52.260;6.714;2023-07-31T02:50:06;5.63;;;3.38;;
38312;SDS011;24114;52.260;6.714;2023-07-31T02:52:34;7.22;;;3.25;;
38312;SDS011;24114;52.260;6.714;2023-07-31T02:55:02;5.72;;;2.90;;
38312;SDS011;24114;52.260;6.714;2023-07-31T02:57:30;5.25;;;2.97;;
38312;SDS011;24114;52.260;6.714;2023-07-31T02:59:58;4.88;;;2.65;;
38312;SDS011;24114;52.260;6.714;2023-07-31T03:02:26;3.70;;;2.30;;
38312;SDS011;24114;52.260;6.714;2023-07-31T03:04:54;3.30;;;1.70;;
38312;SDS011;24114;52.260;6.714;2023-07-31T03:07:23;2.05;;;0.82;;
38312;SDS011;24114;52.260;6.714;2023-07-31T03:09:51;2.43;;;0.70;;
38312;SDS011;24114;52.260;6.714;2023-07-31T03:12:19;1.73;;;0.70;;
38312;SDS011;24114;52.260;6.714;2023-07-31T03:14:47;2.20;;;0.90;;
38312;SDS011;24114;52.260;6.714;2023-07-31T03:17:15;1.50;;;0.60;;
38312;SDS011;24114;52.260;6.714;2023-07-31T03:19:43;2.85;;;1.30;;
38312;SDS011;24114;52.260;6.714;2023-07-31T03:22:10;3.22;;;1.17;;
38312;SDS011;24114;52.260;6.714;2023-07-31T03:24:40;3.20;;;1.67;;
38312;SDS011;24114;52.260;6.714;2023-07-31T03:27:08;2.97;;;1.58;;
38312;SDS011;24114;52.260;6.714;2023-07-31T03:29:35;3.97;;;1.77;;
38312;SDS011;24114;52.260;6.714;2023-07-31T03:32:03;3.65;;;1.70;;
38312;SDS011;24114;52.260;6.714;2023-07-31T03:34:32;2.95;;;1.75;;
38312;SDS011;24114;52.260;6.714;2023-07-31T03:37:00;4.25;;;1.60;;
38312;SDS011;24114;52.260;6.714;2023-07-31T03:39:28;3.65;;;1.70;;
38312;SDS011;24114;52.260;6.714;2023-07-31T03:41:57;4.43;;;2.08;;
38312;SDS011;24114;52.260;6.714;2023-07-31T03:44:25;6.15;;;2.58;;
38312;SDS011;24114;52.260;6.714;2023-07-31T03:46:53;6.35;;;3.08;;
38312;SDS011;24114;52.260;6.714;2023-07-31T03:49:20;7.63;;;3.45;;
38312;SDS011;24114;52.260;6.714;2023-07-31T03:51:49;8.82;;;4.07;;
38312;SDS011;24114;52.260;6.714;2023-07-31T03:54:17;8.60;;;4.13;;
38312;SDS011;24114;52.260;6.714;2023-07-31T03:56:45;6.05;;;3.75;;
38312;SDS011;24114;52.260;6.714;2023-07-31T03:59:14;9.60;;;4.70;;
38312;SDS011;24114;52.260;6.714;2023-07-31T04:01:44;8.27;;;4.63;;
38312;SDS011;24114;52.260;6.714;2023-07-31T04:04:12;11.63;;;5.13;;
38312;SDS011;24114;52.260;6.714;2023-07-31T04:06:41;10.05;;;5.00;;
38312;SDS011;24114;52.260;6.714;2023-07-31T04:09:09;11.10;;;5.25;;
38312;SDS011;24114;52.260;6.714;2023-07-31T04:11:36;11.02;;;5.30;;
38312;SDS011;24114;52.260;6.714;2023-07-31T04:14:05;11.88;;;5.55;;
38312;SDS011;24114;52.260;6.714;2023-07-31T04:16:34;11.93;;;5.63;;
38312;SDS011;24114;52.260;6.714;2023-07-31T04:19:03;11.02;;;5.72;;
38312;SDS011;24114;52.260;6.714;2023-07-31T04:21:31;15.02;;;6.72;;
38312;SDS011;24114;52.260;6.714;2023-07-31T04:23:59;12.27;;;6.50;;
38312;SDS011;24114;52.260;6.714;2023-07-31T04:26:26;15.07;;;7.22;;
38312;SDS011;24114;52.260;6.714;2023-07-31T04:28:54;15.65;;;7.18;;
38312;SDS011;24114;52.260;6.714;2023-07-31T04:31:22;16.80;;;7.72;;
38312;SDS011;24114;52.260;6.714;2023-07-31T04:33:51;14.90;;;7.30;;
38312;SDS011;24114;52.260;6.714;2023-07-31T04:36:19;13.93;;;7.07;;
38312;SDS011;24114;52.260;6.714;2023-07-31T04:38:47;15.93;;;7.00;;
38312;SDS011;24114;52.260;6.714;2023-07-31T04:41:15;17.95;;;7.82;;
38312;SDS011;24114;52.260;6.714;2023-07-31T04:43:43;15.50;;;7.20;;
38312;SDS011;24114;52.260;6.714;2023-07-31T04:46:10;14.48;;;7.00;;
38312;SDS011;24114;52.260;6.714;2023-07-31T04:48:38;14.90;;;7.10;;
38312;SDS011;24114;52.260;6.714;2023-07-31T04:51:08;15.10;;;7.22;;
38312;SDS011;24114;52.260;6.714;2023-07-31T04:53:35;17.95;;;7.25;;
38312;SDS011;24114;52.260;6.714;2023-07-31T04:56:03;18.45;;;6.95;;
38312;SDS011;24114;52.260;6.714;2023-07-31T04:58:31;15.70;;;6.60;;
38312;SDS011;24114;52.260;6.714;2023-07-31T05:00:59;14.15;;;5.97;;
38312;SDS011;24114;52.260;6.714;2023-07-31T05:03:27;14.75;;;6.22;;
38312;SDS011;24114;52.260;6.714;2023-07-31T05:05:55;13.15;;;6.53;;
38312;SDS011;24114;52.260;6.714;2023-07-31T05:08:24;15.13;;;5.65;;
38312;SDS011;24114;52.260;6.714;2023-07-31T05:10:52;12.98;;;6.13;;
38312;SDS011;24114;52.260;6.714;2023-07-31T05:13:20;12.23;;;5.93;;
38312;SDS011;24114;52.260;6.714;2023-07-31T05:15:48;14.27;;;5.78;;
38312;SDS011;24114;52.260;6.714;2023-07-31T05:18:16;14.00;;;5.83;;
38312;SDS011;24114;52.260;6.714;2023-07-31T05:20:44;15.20;;;6.13;;
38312;SDS011;24114;52.260;6.714;2023-07-31T05:23:12;14.67;;;5.63;;
38312;SDS011;24114;52.260;6.714;2023-07-31T05:25:41;12.35;;;5.53;;
38312;SDS011;24114;52.260;6.714;2023-07-31T05:28:09;13.55;;;5.68;;
38312;SDS011;24114;52.260;6.714;2023-07-31T05:30:37;11.98;;;5.03;;
38312;SDS011;24114;52.260;6.714;2023-07-31T05:33:05;14.38;;;5.47;;
38312;SDS011;24114;52.260;6.714;2023-07-31T05:35:33;15.10;;;5.72;;
38312;SDS011;24114;52.260;6.714;2023-07-31T05:38:01;11.82;;;5.10;;
38312;SDS011;24114;52.260;6.714;2023-07-31T05:40:28;13.95;;;5.85;;
38312;SDS011;24114;52.260;6.714;2023-07-31T05:43:01;12.30;;;5.37;;
38312;SDS011;24114;52.260;6.714;2023-07-31T05:45:29;11.63;;;5.47;;
38312;SDS011;24114;52.260;6.714;2023-07-31T05:47:56;14.90;;;5.38;;
38312;SDS011;24114;52.260;6.714;2023-07-31T05:50:24;14.47;;;5.90;;
38312;SDS011;24114;52.260;6.714;2023-07-31T05:52:52;14.27;;;5.18;;
38312;SDS011;24114;52.260;6.714;2023-07-31T05:55:20;13.00;;;5.57;;
38312;SDS011;24114;52.260;6.714;2023-07-31T05:57:48;15.18;;;5.93;;
38312;SDS011;24114;52.260;6.714;2023-07-31T06:00:17;15.55;;;5.85;;
38312;SDS011;24114;52.260;6.714;2023-07-31T06:02:45;12.70;;;5.57;;
38312;SDS011;24114;52.260;6.714;2023-07-31T06:05:14;14.10;;;5.32;;
38312;SDS011;24114;52.260;6.714;2023-07-31T06:07:42;13.18;;;5.25;;
38312;SDS011;24114;52.260;6.714;2023-07-31T06:10:10;14.60;;;6.05;;
38312;SDS011;24114;52.260;6.714;2023-07-31T06:12:38;13.25;;;5.47;;
38312;SDS011;24114;52.260;6.714;2023-07-31T06:15:06;11.60;;;5.18;;
38312;SDS011;24114;52.260;6.714;2023-07-31T06:17:35;11.13;;;5.10;;
38312;SDS011;24114;52.260;6.714;2023-07-31T06:20:04;13.05;;;5.25;;
38312;SDS011;24114;52.260;6.714;2023-07-31T06:22:33;14.20;;;5.63;;
38312;SDS011;24114;52.260;6.714;2023-07-31T06:25:01;13.15;;;4.82;;
38312;SDS011;24114;52.260;6.714;2023-07-31T06:27:29;13.02;;;5.00;;
38312;SDS011;24114;52.260;6.714;2023-07-31T06:29:57;12.85;;;5.22;;
38312;SDS011;24114;52.260;6.714;2023-07-31T06:32:25;11.70;;;5.18;;
38312;SDS011;24114;52.260;6.714;2023-07-31T06:34:54;10.68;;;5.00;;
38312;SDS011;24114;52.260;6.714;2023-07-31T06:37:22;12.48;;;4.82;;
38312;SDS011;24114;52.260;6.714;2023-07-31T06:39:50;11.70;;;5.13;;
38312;SDS011;24114;52.260;6.714;2023-07-31T06:42:17;12.35;;;4.65;;
38312;SDS011;24114;52.260;6.714;2023-07-31T06:44:45;9.23;;;4.50;;
38312;SDS011;24114;52.260;6.714;2023-07-31T06:47:13;11.73;;;4.72;;
38312;SDS011;24114;52.260;6.714;2023-07-31T06:49:41;12.25;;;5.00;;
38312;SDS011;24114;52.260;6.714;2023-07-31T06:52:10;7.90;;;4.63;;
38312;SDS011;24114;52.260;6.714;2023-07-31T06:54:38;10.13;;;4.35;;
38312;SDS011;24114;52.260;6.714;2023-07-31T06:57:06;10.55;;;4.40;;
38312;SDS011;24114;52.260;6.714;2023-07-31T06:59:34;7.22;;;4.00;;
38312;SDS011;24114;52.260;6.714;2023-07-31T07:02:02;8.65;;;4.07;;
38312;SDS011;24114;52.260;6.714;2023-07-31T07:04:32;9.70;;;4.30;;
38312;SDS011;24114;52.260;6.714;2023-07-31T07:07:00;6.78;;;3.60;;
38312;SDS011;24114;52.260;6.714;2023-07-31T07:09:29;6.37;;;3.07;;
38312;SDS011;24114;52.260;6.714;2023-07-31T07:11:57;6.00;;;3.42;;
38312;SDS011;24114;52.260;6.714;2023-07-31T07:14:25;6.30;;;3.28;;
38312;SDS011;24114;52.260;6.714;2023-07-31T07:16:52;9.60;;;3.77;;
38312;SDS011;24114;52.260;6.714;2023-07-31T07:19:20;6.63;;;3.05;;
38312;SDS011;24114;52.260;6.714;2023-07-31T07:21:48;6.97;;;2.70;;
38312;SDS011;24114;52.260;6.714;2023-07-31T07:24:16;7.22;;;2.80;;
38312;SDS011;24114;52.260;6.714;2023-07-31T07:26:45;5.55;;;2.97;;
38312;SDS011;24114;52.260;6.714;2023-07-31T07:29:13;6.70;;;2.92;;
38312;SDS011;24114;52.260;6.714;2023-07-31T07:31:41;7.40;;;3.20;;
38312;SDS011;24114;52.260;6.714;2023-07-31T07:34:09;6.57;;;3.08;;
38312;SDS011;24114;52.260;6.714;2023-07-31T07:36:37;5.60;;;2.65;;
38312;SDS011;24114;52.260;6.714;2023-07-31T07:39:05;5.03;;;2.27;;
38312;SDS011;24114;52.260;6.714;2023-07-31T07:41:33;4.90;;;2.72;;
38312;SDS011;24114;52.260;6.714;2023-07-31T07:44:03;4.93;;;1.98;;
38312;SDS011;24114;52.260;6.714;2023-07-31T07:46:31;5.18;;;2.47;;
38312;SDS011;24114;52.260;6.714;2023-07-31T07:48:59;4.68;;;1.98;;
38312;SDS011;24114;52.260;6.714;2023-07-31T07:51:27;4.32;;;2.33;;
38312;SDS011;24114;52.260;6.714;2023-07-31T07:53:57;4.22;;;2.10;;
38312;SDS011;24114;52.260;6.714;2023-07-31T07:56:25;3.57;;;1.50;;
38312;SDS011;24114;52.260;6.714;2023-07-31T07:58:53;4.30;;;1.52;;
38312;SDS011;24114;52.260;6.714;2023-07-31T08:01:23;2.58;;;1.20;;
38312;SDS011;24114;52.260;6.714;2023-07-31T08:03:51;2.40;;;1.20;;
38312;SDS011;24114;52.260;6.714;2023-07-31T08:06:19;2.20;;;0.90;;
38312;SDS011;24114;52.260;6.714;2023-07-31T08:08:47;2.28;;;1.38;;
38312;SDS011;24114;52.260;6.714;2023-07-31T08:11:15;2.72;;;0.98;;
38312;SDS011;24114;52.260;6.714;2023-07-31T08:13:42;1.90;;;1.00;;
38312;SDS011;24114;52.260;6.714;2023-07-31T08:16:10;1.60;;;0.95;;
38312;SDS011;24114;52.260;6.714;2023-07-31T08:18:40;3.10;;;1.08;;
38312;SDS011;24114;52.260;6.714;2023-07-31T08:21:09;2.30;;;1.00;;
38312;SDS011;24114;52.260;6.714;2023-07-31T08:23:36;2.20;;;1.15;;
38312;SDS011;24114;52.260;6.714;2023-07-31T08:26:04;1.90;;;0.88;;
38312;SDS011;24114;52.260;6.714;2023-07-31T08:28:32;1.90;;;0.90;;
38312;SDS011;24114;52.260;6.714;2023-07-31T08:31:01;2.03;;;0.73;;
38312;SDS011;24114;52.260;6.714;2023-07-31T08:33:29;1.67;;;0.60;;
38312;SDS011;24114;52.260;6.714;2023-07-31T08:35:58;1.50;;;0.50;;
38312;SDS011;24114;52.260;6.714;2023-07-31T08:38:27;2.13;;;0.57;;
38312;SDS011;24114;52.260;6.714;2023-07-31T08:40:56;1.38;;;0.43;;
38312;SDS011;24114;52.260;6.714;2023-07-31T08:43:25;1.92;;;0.50;;
38312;SDS011;24114;52.260;6.714;2023-07-31T08:45:53;1.10;;;0.30;;
38312;SDS011;24114;52.260;6.714;2023-07-31T08:48:22;3.15;;;0.80;;
38312;SDS011;24114;52.260;6.714;2023-07-31T08:50:51;0.90;;;0.35;;
38312;SDS011;24114;52.260;6.714;2023-07-31T08:53:21;1.23;;;0.30;;
38312;SDS011;24114;52.260;6.714;2023-07-31T08:55:49;0.70;;;0.22;;
38312;SDS011;24114;52.260;6.714;2023-07-31T08:58:17;1.23;;;0.30;;
38312;SDS011;24114;52.260;6.714;2023-07-31T09:00:46;1.33;;;0.28;;
38312;SDS011;24114;52.260;6.714;2023-07-31T09:03:17;0.60;;;0.20;;
38312;SDS011;24114;52.260;6.714;2023-07-31T09:05:46;0.90;;;0.20;;
38312;SDS011;24114;52.260;6.714;2023-07-31T09:08:15;1.10;;;0.20;;
38312;SDS011;24114;52.260;6.714;2023-07-31T09:10:47;1.52;;;0.52;;
38312;SDS011;24114;52.260;6.714;2023-07-31T09:13:16;1.13;;;0.38;;
38312;SDS011;24114;52.260;6.714;2023-07-31T09:15:46;0.82;;;0.28;;
38312;SDS011;24114;52.260;6.714;2023-07-31T09:18:14;0.82;;;0.20;;
38312;SDS011;24114;52.260;6.714;2023-07-31T09:20:44;0.90;;;0.30;;
38312;SDS011;24114;52.260;6.714;2023-07-31T09:23:13;1.17;;;0.25;;
38312;SDS011;24114;52.260;6.714;2023-07-31T09:25:43;0.93;;;0.32;;
38312;SDS011;24114;52.260;6.714;2023-07-31T09:28:13;0.70;;;0.20;;
38312;SDS011;24114;52.260;6.714;2023-07-31T09:30:44;1.07;;;0.27;;
38312;SDS011;24114;52.260;6.714;2023-07-31T09:33:14;0.88;;;0.30;;
38312;SDS011;24114;52.260;6.714;2023-07-31T09:35:42;0.80;;;0.20;;
38312;SDS011;24114;52.260;6.714;2023-07-31T09:38:11;0.77;;;0.20;;
38312;SDS011;24114;52.260;6.714;2023-07-31T09:40:40;0.70;;;0.30;;
38312;SDS011;24114;52.260;6.714;2023-07-31T09:43:09;0.70;;;0.20;;
38312;SDS011;24114;52.260;6.714;2023-07-31T09:45:39;1.10;;;0.40;;
38312;SDS011;24114;52.260;6.714;2023-07-31T09:48:08;0.97;;;0.60;;
38312;SDS011;24114;52.260;6.714;2023-07-31T09:50:37;0.90;;;0.32;;
38312;SDS011;24114;52.260;6.714;2023-07-31T09:53:05;0.80;;;0.38;;
38312;SDS011;24114;52.260;6.714;2023-07-31T09:55:33;1.30;;;0.30;;
38312;SDS011;24114;52.260;6.714;2023-07-31T09:58:03;0.80;;;0.47;;
38312;SDS011;24114;52.260;6.714;2023-07-31T10:00:32;0.77;;;0.40;;
38312;SDS011;24114;52.260;6.714;2023-07-31T10:03:01;0.80;;;0.30;;
38312;SDS011;24114;52.260;6.714;2023-07-31T10:05:33;1.00;;;0.50;;
38312;SDS011;24114;52.260;6.714;2023-07-31T10:08:03;1.30;;;0.57;;
38312;SDS011;24114;52.260;6.714;2023-07-31T10:10:31;1.15;;;0.80;;
38312;SDS011;24114;52.260;6.714;2023-07-31T10:12:59;2.10;;;0.60;;
38312;SDS011;24114;52.260;6.714;2023-07-31T10:15:28;1.45;;;0.75;;
38312;SDS011;24114;52.260;6.714;2023-07-31T10:17:56;2.53;;;0.63;;
38312;SDS011;24114;52.260;6.714;2023-07-31T10:20:26;1.10;;;0.70;;
38312;SDS011;24114;52.260;6.714;2023-07-31T10:22:55;1.45;;;0.80;;
38312;SDS011;24114;52.260;6.714;2023-07-31T10:25:22;2.13;;;0.85;;
38312;SDS011;24114;52.260;6.714;2023-07-31T10:27:51;1.17;;;0.77;;
38312;SDS011;24114;52.260;6.714;2023-07-31T10:30:20;1.48;;;0.70;;
38312;SDS011;24114;52.260;6.714;2023-07-31T10:32:50;1.05;;;0.77;;
38312;SDS011;24114;52.260;6.714;2023-07-31T10:35:18;1.30;;;0.90;;
38312;SDS011;24114;52.260;6.714;2023-07-31T10:37:49;1.50;;;1.20;;
38312;SDS011;24114;52.260;6.714;2023-07-31T10:40:18;1.67;;;1.20;;
38312;SDS011;24114;52.260;6.714;2023-07-31T10:42:47;1.30;;;0.80;;
38312;SDS011;24114;52.260;6.714;2023-07-31T10:45:23;1.98;;;1.20;;
38312;SDS011;24114;52.260;6.714;2023-07-31T10:47:57;1.67;;;1.40;;
38312;SDS011;24114;52.260;6.714;2023-07-31T10:50:27;2.42;;;1.77;;
38312;SDS011;24114;52.260;6.714;2023-07-31T10:52:57;2.80;;;1.70;;
38312;SDS011;24114;52.260;6.714;2023-07-31T10:55:28;1.88;;;1.52;;
38312;SDS011;24114;52.260;6.714;2023-07-31T10:57:58;2.40;;;2.10;;
38312;SDS011;24114;52.260;6.714;2023-07-31T11:00:32;2.25;;;2.00;;
38312;SDS011;24114;52.260;6.714;2023-07-31T11:03:01;2.47;;;2.27;;
38312;SDS011;24114;52.260;6.714;2023-07-31T11:05:43;2.72;;;2.45;;
38312;SDS011;24114;52.260;6.714;2023-07-31T11:08:15;2.93;;;2.73;;
38312;SDS011;24114;52.260;6.714;2023-07-31T11:10:44;3.45;;;2.90;;
38312;SDS011;24114;52.260;6.714;2023-07-31T11:13:12;3.60;;;3.30;;
38312;SDS011;24114;52.260;6.714;2023-07-31T11:15:40;3.70;;;3.30;;
38312;SDS011;24114;52.260;6.714;2023-07-31T11:18:08;3.97;;;3.58;;
38312;SDS011;24114;52.260;6.714;2023-07-31T11:20:38;5.00;;;4.10;;
38312;SDS011;24114;52.260;6.714;2023-07-31T11:23:07;4.65;;;4.15;;
38312;SDS011;24114;52.260;6.714;2023-07-31T11:25:38;5.80;;;4.60;;
38312;SDS011;24114;52.260;6.714;2023-07-31T11:28:08;6.05;;;4.82;;
38312;SDS011;24114;52.260;6.714;2023-07-31T11:30:37;5.50;;;4.97;;
38312;SDS011;24114;52.260;6.714;2023-07-31T11:33:06;7.67;;;5.23;;
38312;SDS011;24114;52.260;6.714;2023-07-31T11:35:40;7.50;;;6.03;;
38312;SDS011;24114;52.260;6.714;2023-07-31T11:38:10;7.55;;;6.07;;
38312;SDS011;24114;52.260;6.714;2023-07-31T11:40:43;7.85;;;6.22;;
38312;SDS011;24114;52.260;6.714;2023-07-31T11:43:12;7.38;;;6.30;;
38312;SDS011;24114;52.260;6.714;2023-07-31T11:45:44;8.10;;;6.55;;
38312;SDS011;24114;52.260;6.714;2023-07-31T11:48:17;8.47;;;6.70;;
38312;SDS011;24114;52.260;6.714;2023-07-31T11:50:46;8.47;;;6.83;;
38312;SDS011;24114;52.260;6.714;2023-07-31T11:53:16;8.85;;;6.93;;
38312;SDS011;24114;52.260;6.714;2023-07-31T11:55:46;8.27;;;7.13;;
38312;SDS011;24114;52.260;6.714;2023-07-31T11:58:14;8.52;;;6.75;;
38312;SDS011;24114;52.260;6.714;2023-07-31T12:00:43;9.25;;;7.20;;
38312;SDS011;24114;52.260;6.714;2023-07-31T12:03:11;8.25;;;6.85;;
38312;SDS011;24114;52.260;6.714;2023-07-31T12:05:39;7.28;;;6.45;;
38312;SDS011;24114;52.260;6.714;2023-07-31T12:08:11;9.40;;;7.30;;
38312;SDS011;24114;52.260;6.714;2023-07-31T12:10:39;7.70;;;6.47;;
38312;SDS011;24114;52.260;6.714;2023-07-31T12:13:10;7.85;;;6.60;;
38312;SDS011;24114;52.260;6.714;2023-07-31T12:15:40;8.00;;;5.97;;
38312;SDS011;24114;52.260;6.714;2023-07-31T12:19:50;7.43;;;6.20;;
38312;SDS011;24114;52.260;6.714;2023-07-31T12:22:18;6.25;;;5.32;;
38312;SDS011;24114;52.260;6.714;2023-07-31T12:24:47;5.78;;;5.18;;
38312;SDS011;24114;52.260;6.714;2023-07-31T12:27:15;5.45;;;4.88;;
38312;SDS011;24114;52.260;6.714;2023-07-31T12:29:44;5.45;;;4.95;;
38312;SDS011;24114;52.260;6.714;2023-07-31T12:32:21;5.50;;;4.77;;
38312;SDS011;24114;52.260;6.714;2023-07-31T12:34:51;5.20;;;4.68;;
38312;SDS011;24114;52.260;6.714;2023-07-31T12:37:20;5.93;;;5.00;;
38312;SDS011;24114;52.260;6.714;2023-07-31T12:39:48;6.43;;;4.90;;
38312;SDS011;24114;52.260;6.714;2023-07-31T12:42:16;5.85;;;4.88;;
38312;SDS011;24114;52.260;6.714;2023-07-31T12:44:44;5.72;;;5.13;;
38312;SDS011;24114;52.260;6.714;2023-07-31T12:47:12;7.18;;;5.82;;
38312;SDS011;24114;52.260;6.714;2023-07-31T12:49:41;5.82;;;5.00;;
38312;SDS011;24114;52.260;6.714;2023-07-31T12:52:10;6.07;;;5.20;;
38312;SDS011;24114;52.260;6.714;2023-07-31T12:54:38;6.40;;;5.32;;
38312;SDS011;24114;52.260;6.714;2023-07-31T12:57:06;7.20;;;5.38;;
38312;SDS011;24114;52.260;6.714;2023-07-31T12:59:34;6.50;;;5.70;;
38312;SDS011;24114;52.260;6.714;2023-07-31T13:02:01;6.68;;;5.30;;
38312;SDS011;24114;52.260;6.714;2023-07-31T13:04:29;7.03;;;5.70;;
38312;SDS011;24114;52.260;6.714;2023-07-31T13:06:57;5.95;;;5.25;;
38312;SDS011;24114;52.260;6.714;2023-07-31T13:09:26;7.03;;;5.53;;
38312;SDS011;24114;52.260;6.714;2023-07-31T13:11:54;6.90;;;5.70;;
38312;SDS011;24114;52.260;6.714;2023-07-31T13:14:23;6.70;;;5.50;;
38312;SDS011;24114;52.260;6.714;2023-07-31T13:16:51;7.20;;;5.97;;
38312;SDS011;24114;52.260;6.714;2023-07-31T13:19:19;7.28;;;5.72;;
38312;SDS011;24114;52.260;6.714;2023-07-31T13:21:46;5.43;;;4.93;;
38312;SDS011;24114;52.260;6.714;2023-07-31T13:24:14;7.05;;;5.82;;
38312;SDS011;24114;52.260;6.714;2023-07-31T13:26:44;7.45;;;5.43;;
38312;SDS011;24114;52.260;6.714;2023-07-31T13:29:12;5.28;;;4.78;;
38312;SDS011;24114;52.260;6.714;2023-07-31T13:31:40;8.20;;;5.32;;
38312;SDS011;24114;52.260;6.714;2023-07-31T13:34:09;6.93;;;4.93;;
38312;SDS011;24114;52.260;6.714;2023-07-31T13:36:37;7.50;;;4.70;;
38312;SDS011;24114;52.260;6.714;2023-07-31T13:39:05;6.45;;;5.57;;
38312;SDS011;24114;52.260;6.714;2023-07-31T13:41:33;7.25;;;5.03;;
38312;SDS011;24114;52.260;6.714;2023-07-31T13:44:03;5.43;;;4.20;;
38312;SDS011;24114;52.260;6.714;2023-07-31T13:46:31;5.68;;;4.18;;
38312;SDS011;24114;52.260;6.714;2023-07-31T13:48:59;5.95;;;4.30;;
38312;SDS011;24114;52.260;6.714;2023-07-31T13:51:27;7.13;;;4.95;;
38312;SDS011;24114;52.260;6.714;2023-07-31T13:53:55;7.53;;;4.32;;
38312;SDS011;24114;52.260;6.714;2023-07-31T13:56:23;5.57;;;4.20;;
38312;SDS011;24114;52.260;6.714;2023-07-31T13:58:51;5.38;;;4.32;;
38312;SDS011;24114;52.260;6.714;2023-07-31T14:01:20;5.15;;;4.30;;
38312;SDS011;24114;52.260;6.714;2023-07-31T14:03:48;6.78;;;4.50;;
38312;SDS011;24114;52.260;6.714;2023-07-31T14:06:16;5.30;;;4.30;;
38312;SDS011;24114;52.260;6.714;2023-07-31T14:08:44;6.73;;;4.70;;
38312;SDS011;24114;52.260;6.714;2023-07-31T14:11:12;5.47;;;4.60;;
38312;SDS011;24114;52.260;6.714;2023-07-31T14:13:40;5.23;;;4.27;;
38312;SDS011;24114;52.260;6.714;2023-07-31T14:16:07;6.28;;;4.68;;
38312;SDS011;24114;52.260;6.714;2023-07-31T14:18:37;5.83;;;4.60;;
38312;SDS011;24114;52.260;6.714;2023-07-31T14:21:05;6.90;;;4.70;;
38312;SDS011;24114;52.260;6.714;2023-07-31T14:23:33;5.88;;;4.78;;
38312;SDS011;24114;52.260;6.714;2023-07-31T14:26:01;5.15;;;4.43;;
38312;SDS011;24114;52.260;6.714;2023-07-31T14:28:29;7.15;;;4.93;;
38312;SDS011;24114;52.260;6.714;2023-07-31T14:30:57;6.53;;;5.03;;
38312;SDS011;24114;52.260;6.714;2023-07-31T14:33:25;6.10;;;5.03;;
38312;SDS011;24114;52.260;6.714;2023-07-31T14:35:55;6.10;;;4.68;;
38312;SDS011;24114;52.260;6.714;2023-07-31T14:38:22;6.72;;;4.70;;
38312;SDS011;24114;52.260;6.714;2023-07-31T14:40:50;5.60;;;4.30;;
38312;SDS011;24114;52.260;6.714;2023-07-31T14:43:22;6.03;;;4.55;;
38312;SDS011;24114;52.260;6.714;2023-07-31T14:45:49;5.35;;;4.32;;
38312;SDS011;24114;52.260;6.714;2023-07-31T14:48:17;6.05;;;3.72;;
38312;SDS011;24114;52.260;6.714;2023-07-31T14:50:45;4.95;;;4.07;;
38312;SDS011;24114;52.260;6.714;2023-07-31T14:53:14;4.63;;;4.00;;
38312;SDS011;24114;52.260;6.714;2023-07-31T14:55:42;5.53;;;3.85;;